Time;durP1;ratioP1;P1;durP2;ratioP2;P2;SDS_P1;SDS_P2;PMS_P1;PMS_P2;Temp;Humidity;BMP_temperature;BMP_pressure;BME280_temperature;BME280_humidity;BME280_pressure;Samples;Min_cycle;Max_cycle;Signal;HPM_P1;HPM_P2
2021/06/23 00:04:18;;;;;;;22.67;14.60;;;;;;;12.66;85.34;101970.50;10580234;28;20054;-59
2021/06/23 00:09:20;;;;;;;28.15;17.75;;;;;;;12.41;84.90;101966.41;10579877;28;20039;-59
2021/06/23 00:14:23;;;;;;;19.98;14.88;;;;;;;12.39;84.71;101959.50;10580395;28;20070;-59
2021/06/23 00:19:25;;;;;;;25.70;17.20;;;;;;;12.28;86.64;101949.50;10580108;28;20066;-60
2021/06/23 00:24:27;;;;;;;21.45;15.50;;;;;;;12.23;85.99;101935.75;10579852;28;20130;-59
2021/06/23 00:29:30;;;;;;;23.58;16.42;;;;;;;12.35;85.30;101914.16;10579680;28;20074;-59
2021/06/23 00:34:32;;;;;;;22.45;15.68;;;;;;;12.12;86.87;101928.38;10579540;28;20055;-59
2021/06/23 00:39:34;;;;;;;20.95;14.57;;;;;;;12.00;85.98;101942.03;10582217;28;20047;-59
2021/06/23 00:44:40;;;;;;;13.80;12.43;;;;;;;12.30;84.96;101945.03;10586457;28;20054;-59
2021/06/23 00:49:42;;;;;;;21.85;16.65;;;;;;;12.17;87.12;101955.25;10585015;28;20055;-59
2021/06/23 00:54:48;;;;;;;22.40;14.73;;;;;;;12.06;86.44;101949.63;10584791;28;20070;-59
2021/06/23 00:59:52;;;;;;;23.63;16.02;;;;;;;12.25;86.50;101949.66;10586110;28;20044;-59
2021/06/23 01:04:54;;;;;;;23.17;13.20;;;;;;;12.36;83.68;101951.78;10586554;27;20052;-59
2021/06/23 01:09:57;;;;;;;24.88;16.15;;;;;;;12.40;85.51;101946.31;10586468;28;20048;-59
2021/06/23 01:15:00;;;;;;;21.60;14.48;;;;;;;12.18;84.32;101956.94;10584813;28;20063;-58
2021/06/23 01:20:11;;;;;;;24.05;13.80;;;;;;;12.20;86.21;101960.34;10584909;28;20056;-59
2021/06/23 01:25:15;;;;;;;18.53;12.20;;;;;;;12.21;85.53;101959.44;10585630;28;20051;-59
2021/06/23 01:30:18;;;;;;;26.42;12.43;;;;;;;12.16;85.14;101974.56;10585825;28;20274;-59
2021/06/23 01:35:21;;;;;;;15.55;12.63;;;;;;;12.26;85.09;101973.22;10585112;28;20047;-59
2021/06/23 01:40:23;;;;;;;18.88;12.93;;;;;;;12.20;86.17;101976.09;10583955;28;20415;-59
2021/06/23 01:45:27;;;;;;;21.80;13.32;;;;;;;12.14;86.49;101979.03;10584326;28;20055;-59
2021/06/23 01:50:29;;;;;;;19.33;11.95;;;;;;;12.18;85.49;101985.00;10584800;28;20047;-59
2021/06/23 01:55:32;;;;;;;15.35;12.20;;;;;;;12.01;85.90;102002.34;10583748;28;20540;-59
2021/06/23 02:01:09;;;;;;;19.58;11.48;;;;;;;12.19;86.90;102005.09;10583734;28;20044;-60
2021/06/23 02:06:45;;;;;;;17.35;11.90;;;;;;;12.15;86.35;101999.09;10579132;28;20044;-60
2021/06/23 02:11:49;;;;;;;14.65;11.07;;;;;;;12.00;87.65;101997.16;10552170;28;20048;-59
2021/06/23 02:16:55;;;;;;;17.45;10.90;;;;;;;12.14;86.19;101988.66;10582091;28;20399;-59
2021/06/23 02:21:58;;;;;;;17.70;12.07;;;;;;;12.31;85.27;101986.13;10583835;28;20044;-60
2021/06/23 02:27:00;;;;;;;17.80;12.80;;;;;;;12.33;83.87;101996.56;10581871;28;20051;-59
2021/06/23 02:32:04;;;;;;;17.63;12.15;;;;;;;12.29;84.83;102002.88;10583633;28;20051;-59
2021/06/23 02:37:07;;;;;;;17.75;12.95;;;;;;;12.33;87.20;102007.06;10582587;28;20046;-59
2021/06/23 02:42:10;;;;;;;15.45;11.35;;;;;;;12.08;85.81;102009.00;10581843;28;20051;-59
2021/06/23 02:47:16;;;;;;;17.95;12.18;;;;;;;12.34;86.00;102001.75;10580744;28;20047;-59
2021/06/23 02:52:18;;;;;;;26.30;13.80;;;;;;;12.21;85.68;102004.06;10581056;28;20052;-59
2021/06/23 02:57:21;;;;;;;21.08;13.45;;;;;;;12.29;86.25;102014.25;10581985;28;20159;-60
2021/06/23 03:02:24;;;;;;;21.67;14.30;;;;;;;12.10;87.78;102000.22;10579729;28;20516;-60
2021/06/23 03:07:26;;;;;;;26.92;14.15;;;;;;;12.25;84.93;102010.03;10581254;28;20505;-59
2021/06/23 03:12:29;;;;;;;23.90;14.38;;;;;;;12.21;87.54;102011.09;10581704;28;20410;-59
2021/06/23 03:17:31;;;;;;;25.85;15.07;;;;;;;12.31;86.42;102019.44;10581230;28;20039;-60
2021/06/23 03:22:34;;;;;;;20.42;13.05;;;;;;;12.15;86.70;102008.75;10580383;28;20048;-59
2021/06/23 03:27:36;;;;;;;22.45;15.50;;;;;;;12.06;87.21;102007.38;10580810;28;20046;-59
2021/06/23 03:32:38;;;;;;;19.58;12.48;;;;;;;12.07;86.30;102011.72;10580169;28;20091;-60
2021/06/23 03:37:41;;;;;;;24.98;13.88;;;;;;;12.18;86.33;102006.84;10581141;28;20043;-60
2021/06/23 03:42:43;;;;;;;24.85;14.05;;;;;;;12.25;85.51;102008.28;10579787;28;20055;-60
2021/06/23 03:47:46;;;;;;;21.65;13.73;;;;;;;12.17;86.41;102013.03;10580252;28;20048;-60
2021/06/23 03:52:49;;;;;;;20.90;12.90;;;;;;;12.03;85.33;102000.50;10580487;28;20051;-60
2021/06/23 03:57:52;;;;;;;18.27;11.98;;;;;;;12.10;85.52;102003.69;10580430;28;20054;-59
2021/06/23 04:02:54;;;;;;;17.48;11.77;;;;;;;12.01;84.16;102012.84;10580109;28;20056;-60
2021/06/23 04:07:56;;;;;;;20.35;11.77;;;;;;;12.11;85.45;102008.03;10579822;28;20044;-60
2021/06/23 04:12:59;;;;;;;19.00;11.52;;;;;;;11.95;84.51;102014.88;10582256;28;20051;-59
2021/06/23 04:18:01;;;;;;;18.20;12.13;;;;;;;11.90;85.64;102023.78;10588401;28;20067;-59
2021/06/23 04:23:03;;;;;;;18.08;12.05;;;;;;;12.06;84.85;102017.88;10588519;28;20048;-60
2021/06/23 04:28:06;;;;;;;17.40;12.90;;;;;;;12.08;85.58;102030.00;10587966;28;20474;-59
2021/06/23 04:33:08;;;;;;;17.58;13.68;;;;;;;12.23;85.03;102020.59;10587854;28;20055;-59
2021/06/23 04:38:11;;;;;;;21.13;13.30;;;;;;;12.13;85.94;102021.94;10587544;28;20152;-60
2021/06/23 04:43:13;;;;;;;17.30;12.45;;;;;;;12.32;85.48;102026.38;10587214;28;20485;-59
2021/06/23 04:48:16;;;;;;;17.60;12.93;;;;;;;12.29;85.23;102024.75;10587750;28;20402;-59
2021/06/23 04:53:18;;;;;;;20.00;12.88;;;;;;;12.35;85.52;102019.19;10585899;28;20130;-60
2021/06/23 04:58:21;;;;;;;17.20;13.23;;;;;;;12.50;85.55;102017.66;10586718;28;20117;-59
2021/06/23 05:03:23;;;;;;;18.83;12.50;;;;;;;12.41;84.46;102020.72;10586965;28;20059;-59
2021/06/23 05:08:26;;;;;;;18.13;12.48;;;;;;;12.25;85.58;102016.16;10587212;28;20136;-60
2021/06/23 05:13:29;;;;;;;16.40;11.95;;;;;;;12.40;84.81;102019.00;10586614;28;20054;-60
2021/06/23 05:18:31;;;;;;;17.20;11.48;;;;;;;12.35;84.58;102028.84;10585964;28;20047;-59
2021/06/23 05:23:34;;;;;;;19.92;12.60;;;;;;;12.52;83.82;102023.69;10585174;28;20051;-60
2021/06/23 05:28:36;;;;;;;20.88;8.48;;;;;;;12.51;82.22;102026.38;10585562;28;20043;-60
2021/06/23 05:33:38;;;;;;;20.95;11.90;;;;;;;12.61;85.12;102031.16;10586278;28;20056;-59
2021/06/23 05:38:41;;;;;;;21.08;11.00;;;;;;;12.69;83.78;102028.16;10585429;28;20051;-60
2021/06/23 05:43:43;;;;;;;21.63;12.15;;;;;;;12.61;85.61;102039.03;10585155;28;20043;-60
2021/06/23 05:48:45;;;;;;;17.95;11.30;;;;;;;12.65;85.15;102042.38;10585290;28;20059;-60
2021/06/23 05:53:48;;;;;;;14.88;10.40;;;;;;;12.89;82.88;102037.72;10584831;28;20059;-60
2021/06/23 05:58:50;;;;;;;19.75;11.00;;;;;;;12.95;84.11;102042.69;10584323;28;20476;-60
2021/06/23 06:03:53;;;;;;;14.98;12.25;;;;;;;12.97;84.65;102047.88;10584320;28;20047;-60
2021/06/23 06:08:55;;;;;;;17.08;11.45;;;;;;;12.94;81.37;102055.91;10584308;28;20070;-60
2021/06/23 06:13:57;;;;;;;18.88;11.90;;;;;;;13.15;81.37;102057.53;10583924;28;20052;-59
2021/06/23 06:19:00;;;;;;;17.17;10.85;;;;;;;13.11;82.65;102063.00;10584000;28;20055;-60
2021/06/23 06:24:02;;;;;;;21.13;12.15;;;;;;;13.11;83.37;102061.25;10583813;28;20122;-60
2021/06/23 06:29:05;;;;;;;12.90;8.07;;;;;;;13.23;78.47;102066.81;10583267;28;20398;-59
2021/06/23 06:34:08;;;;;;;19.50;11.27;;;;;;;13.31;80.55;102068.13;10583664;28;20059;-59
2021/06/23 06:39:10;;;;;;;15.60;10.40;;;;;;;13.55;82.14;102086.34;10582237;28;20051;-59
2021/06/23 06:44:12;;;;;;;12.90;8.02;;;;;;;13.59;80.53;102081.78;10582674;28;20050;-59
2021/06/23 06:49:15;;;;;;;13.13;9.05;;;;;;;13.68;82.62;102083.94;10583005;28;20051;-59
2021/06/23 06:54:17;;;;;;;11.55;6.22;;;;;;;13.37;79.42;102083.66;10582581;28;20057;-59
2021/06/23 06:59:19;;;;;;;12.02;7.90;;;;;;;13.54;78.64;102088.09;10582297;28;20433;-60
2021/06/23 07:04:22;;;;;;;14.90;7.13;;;;;;;13.58;78.41;102096.69;10582147;28;20047;-59
2021/06/23 07:09:24;;;;;;;18.63;9.00;;;;;;;13.54;81.96;102098.63;10582612;28;20052;-60
2021/06/23 07:14:26;;;;;;;13.25;6.75;;;;;;;13.57;78.53;102097.63;10582057;28;20062;-59
2021/06/23 07:19:29;;;;;;;17.90;8.30;;;;;;;13.50;79.94;102094.44;10581654;28;20044;-60
2021/06/23 07:24:31;;;;;;;15.38;8.65;;;;;;;13.69;81.36;102094.38;10581525;28;20044;-59
2021/06/23 07:29:33;;;;;;;17.25;8.15;;;;;;;13.62;80.26;102089.53;10581363;28;20058;-59
2021/06/23 07:36:32;;;;;;;14.05;6.93;;;;;;;13.75;79.75;102091.47;10581592;28;20062;-60
2021/06/23 07:39:58;;;;;;;14.27;5.60;;;;;;;13.64;74.34;102090.28;10581501;28;20051;-60
2021/06/23 07:45:03;;;;;;;16.52;6.35;;;;;;;14.03;76.28;102083.94;10580962;28;20047;-60
2021/06/23 07:50:08;;;;;;;14.27;6.10;;;;;;;13.72;75.79;102086.34;10587092;28;20047;-60
2021/06/23 07:55:42;;;;;;;14.30;4.80;;;;;;;13.89;75.59;102085.47;10589873;28;20047;-60
2021/06/23 08:11:22;;;;;;;10.38;4.40;;;;;;;14.48;76.92;102091.19;10589084;28;20050;-59
2021/06/23 08:16:25;;;;;;;9.88;4.13;;;;;;;14.35;76.02;102091.94;10589079;28;20058;-59
2021/06/23 08:21:27;;;;;;;11.10;4.15;;;;;;;14.52;74.55;102091.88;10588775;28;20086;-59
2021/06/23 08:26:30;;;;;;;10.30;3.58;;;;;;;14.60;71.11;102084.44;10588139;28;20487;-60
2021/06/23 08:31:32;;;;;;;10.75;3.97;;;;;;;14.38;73.01;102086.50;10588124;28;20047;-59
2021/06/23 08:36:34;;;;;;;8.27;4.60;;;;;;;14.56;75.03;102092.56;10587704;28;20054;-59
2021/06/23 08:41:38;;;;;;;8.63;3.95;;;;;;;15.29;68.71;102085.06;10588303;28;20044;-59
2021/06/23 08:46:41;;;;;;;8.18;3.80;;;;;;;15.59;72.15;102082.44;10587342;28;20124;-60
2021/06/23 08:51:44;;;;;;;10.35;4.38;;;;;;;15.86;71.16;102086.22;10587688;28;20415;-59
2021/06/23 08:56:47;;;;;;;8.57;3.92;;;;;;;15.68;71.74;102085.47;10587174;28;20043;-58
2021/06/23 09:01:50;;;;;;;8.38;3.40;;;;;;;15.30;69.21;102094.69;10585470;28;20050;-59
2021/06/23 09:06:54;;;;;;;8.52;4.00;;;;;;;15.90;66.53;102093.00;10585395;28;20046;-59
2021/06/23 09:12:02;;;;;;;12.10;5.15;;;;;;;16.17;70.59;102095.78;10586971;28;20052;-59
2021/06/23 09:17:14;;;;;;;9.50;3.50;;;;;;;16.19;69.30;102093.06;10585207;28;20414;-58
2021/06/23 09:22:45;;;;;;;11.23;4.13;;;;;;;16.18;68.50;102096.66;10585639;28;20089;-59
2021/06/23 09:27:50;;;;;;;10.10;4.13;;;;;;;16.19;68.39;102096.56;10585724;28;20044;-59
2021/06/23 09:33:15;;;;;;;8.85;3.95;;;;;;;16.71;70.19;102096.00;10586043;28;20403;-58
2021/06/23 09:38:49;;;;;;;7.18;3.35;;;;;;;16.33;67.77;102103.66;10585464;28;20040;-59
2021/06/23 09:43:54;;;;;;;13.63;3.97;;;;;;;16.94;65.81;102109.56;10584580;28;20048;-59
2021/06/23 09:49:05;;;;;;;9.38;3.90;;;;;;;16.68;68.60;102112.03;10585043;28;20055;-59
2021/06/23 09:54:09;;;;;;;11.93;3.70;;;;;;;16.47;63.54;102102.78;10585318;28;20062;-59
2021/06/23 09:59:42;;;;;;;7.40;3.38;;;;;;;16.96;68.07;102096.25;10584789;28;20047;-58
2021/06/23 10:04:45;;;;;;;10.98;3.35;;;;;;;16.87;62.43;102102.97;10584929;28;20058;-59
2021/06/23 10:09:51;;;;;;;9.38;3.65;;;;;;;17.85;65.69;102101.00;10583876;28;20051;-59
2021/06/23 10:14:54;;;;;;;11.60;3.60;;;;;;;18.14;62.97;102107.00;10584681;28;20070;-59
2021/06/23 10:19:57;;;;;;;14.40;5.45;;;;;;;17.69;65.20;102103.00;10583707;28;20039;-59
2021/06/23 10:25:04;;;;;;;10.60;3.30;;;;;;;17.10;62.29;102101.53;10582371;28;20044;-59
2021/06/23 10:30:07;;;;;;;10.45;3.17;;;;;;;17.61;65.43;102098.19;10583863;28;20044;-59
2021/06/23 10:35:14;;;;;;;7.32;3.65;;;;;;;17.95;62.70;102107.38;10540883;28;20388;-60
2021/06/23 10:40:18;;;;;;;11.82;4.07;;;;;;;17.40;60.50;102101.31;10541157;28;20062;-59
2021/06/23 10:45:20;;;;;;;9.63;3.55;;;;;;;17.75;59.25;102092.84;10539400;28;20047;-59
2021/06/23 10:50:34;;;;;;;6.90;3.35;;;;;;;17.97;58.81;102096.69;10541235;28;20066;-59
2021/06/23 10:55:37;;;;;;;7.70;3.42;;;;;;;17.62;59.32;102092.81;10540304;28;20059;-59
2021/06/23 11:00:40;;;;;;;8.40;4.07;;;;;;;17.45;60.28;102091.28;10540163;28;20404;-59
2021/06/23 11:05:45;;;;;;;7.70;4.05;;;;;;;17.50;59.84;102095.41;10540015;28;20132;-59
2021/06/23 11:10:48;;;;;;;9.15;4.32;;;;;;;17.46;58.63;102102.72;10540278;28;20111;-59
2021/06/23 11:15:53;;;;;;;7.53;3.80;;;;;;;17.77;58.93;102101.53;10539980;28;20103;-59
2021/06/23 11:21:01;;;;;;;10.75;4.20;;;;;;;19.33;58.66;102092.44;10539700;28;20479;-58
2021/06/23 11:26:03;;;;;;;7.57;3.72;;;;;;;18.92;56.74;102095.34;10539100;28;20043;-59
2021/06/23 11:31:06;;;;;;;6.63;3.70;;;;;;;18.72;61.46;102095.91;10538358;28;20048;-59
2021/06/23 11:36:12;;;;;;;6.47;3.97;;;;;;;18.72;57.75;102096.75;10539429;28;20048;-59
2021/06/23 11:41:16;;;;;;;8.65;4.00;;;;;;;18.46;60.07;102093.31;10539100;28;20142;-58
2021/06/23 11:46:18;;;;;;;5.70;4.10;;;;;;;18.37;58.23;102096.59;10538015;28;20422;-58
2021/06/23 11:51:23;;;;;;;11.13;3.40;;;;;;;17.93;56.01;102092.56;10538364;28;20078;-58
2021/06/23 11:56:25;;;;;;;10.25;3.60;;;;;;;18.50;56.46;102083.34;10537936;28;20408;-58
2021/06/23 12:01:27;;;;;;;8.25;2.95;;;;;;;18.78;57.17;102082.22;10538207;28;20047;-59
2021/06/23 12:06:30;;;;;;;9.93;4.07;;;;;;;19.05;57.64;102079.41;10537802;28;20131;-58
2021/06/23 12:11:32;;;;;;;8.00;3.90;;;;;;;18.67;58.19;102080.31;10538553;28;20050;-58
2021/06/23 12:16:34;;;;;;;8.40;3.30;;;;;;;19.25;60.41;102075.28;10538514;28;20052;-59
2021/06/23 12:21:37;;;;;;;6.80;2.55;;;;;;;19.43;56.84;102066.88;10539566;28;20047;-59
2021/06/23 12:26:39;;;;;;;9.07;3.80;;;;;;;18.14;55.41;102079.63;10538031;28;20381;-59
2021/06/23 12:31:42;;;;;;;8.73;4.53;;;;;;;18.62;57.35;102077.16;10538185;28;20506;-59
2021/06/23 12:36:45;;;;;;;5.55;3.38;;;;;;;18.55;55.62;102071.44;10544225;28;20056;-59
2021/06/23 12:41:47;;;;;;;8.40;3.08;;;;;;;18.83;57.36;102072.16;10545557;28;20050;-59
2021/06/23 12:46:49;;;;;;;9.32;3.47;;;;;;;18.41;54.12;102073.38;10545426;28;20077;-58
2021/06/23 12:51:52;;;;;;;10.23;3.65;;;;;;;18.81;56.40;102067.88;10544706;28;20044;-59
2021/06/23 12:56:54;;;;;;;6.78;3.40;;;;;;;18.92;59.95;102066.16;10545082;28;20063;-59
2021/06/23 13:02:00;;;;;;;7.97;3.17;;;;;;;18.93;57.78;102073.19;10544522;28;20058;-59
2021/06/23 13:07:02;;;;;;;8.55;3.85;;;;;;;18.49;55.01;102068.38;10544214;28;20048;-59
2021/06/23 13:12:05;;;;;;;9.57;3.70;;;;;;;18.54;55.66;102064.44;10544218;28;20051;-60
2021/06/23 13:17:09;;;;;;;7.60;3.40;;;;;;;18.73;57.94;102071.09;10543892;28;20135;-60
2021/06/23 13:22:13;;;;;;;9.55;3.65;;;;;;;18.61;55.94;102077.25;10544712;28;20040;-60
2021/06/23 13:27:15;;;;;;;7.43;3.65;;;;;;;18.65;54.25;102074.28;10543840;28;20055;-59
2021/06/23 13:32:20;;;;;;;7.07;3.45;;;;;;;18.02;56.43;102081.31;10543985;28;20040;-59
2021/06/23 13:37:23;;;;;;;10.93;3.97;;;;;;;18.08;56.12;102077.44;10543233;28;20052;-60
2021/06/23 13:42:25;;;;;;;10.13;4.35;;;;;;;17.81;55.41;102083.63;10543019;28;20131;-60
2021/06/23 13:47:28;;;;;;;7.80;3.40;;;;;;;18.41;61.61;102090.13;10542084;28;20506;-60
2021/06/23 13:52:30;;;;;;;6.90;3.50;;;;;;;18.42;63.12;102086.50;10543062;28;20048;-60
2021/06/23 13:57:34;;;;;;;6.88;3.67;;;;;;;17.98;58.63;102088.63;10542984;28;20059;-60
2021/06/23 14:02:36;;;;;;;6.15;3.25;;;;;;;18.50;59.64;102086.81;10541972;28;20394;-60
2021/06/23 14:07:38;;;;;;;11.13;4.60;;;;;;;17.79;60.47;102089.03;10542060;28;20051;-59
2021/06/23 14:12:41;;;;;;;9.20;4.25;;;;;;;18.29;59.16;102085.69;10542233;28;20044;-60
2021/06/23 14:17:44;;;;;;;10.88;4.30;;;;;;;18.51;57.01;102093.84;10541607;28;20052;-60
2021/06/23 14:22:46;;;;;;;5.30;3.03;;;;;;;18.58;60.07;102081.00;10541562;28;20506;-59
2021/06/23 14:27:50;;;;;;;6.18;3.40;;;;;;;18.55;60.46;102082.03;10541502;28;20051;-60
2021/06/23 14:32:53;;;;;;;8.43;3.65;;;;;;;18.45;61.82;102086.31;10541343;28;20073;-61
2021/06/23 14:37:55;;;;;;;7.55;4.13;;;;;;;18.55;57.16;102079.38;10540867;28;20620;-60
2021/06/23 14:42:58;;;;;;;6.07;3.78;;;;;;;18.75;61.95;102077.13;10540916;28;20048;-60
2021/06/23 14:48:00;;;;;;;7.88;3.78;;;;;;;18.06;58.34;102082.00;10540029;28;20056;-60
2021/06/23 14:53:03;;;;;;;10.23;3.50;;;;;;;18.46;64.54;102088.00;10540509;28;20058;-60
2021/06/23 14:58:05;;;;;;;6.93;3.42;;;;;;;18.20;62.20;102084.50;10538795;28;20055;-60
2021/06/23 15:03:08;;;;;;;7.38;3.55;;;;;;;18.07;62.94;102088.97;10540225;28;20506;-60
2021/06/23 15:08:10;;;;;;;9.95;3.38;;;;;;;18.37;62.71;102076.25;10539918;28;20581;-60
2021/06/23 15:13:13;;;;;;;7.82;3.47;;;;;;;18.46;61.85;102074.75;10540262;28;20044;-60
2021/06/23 15:18:16;;;;;;;8.23;3.80;;;;;;;17.99;59.45;102073.63;10539654;28;20056;-59
2021/06/23 15:23:19;;;;;;;6.93;3.83;;;;;;;17.96;58.41;102068.53;10539731;28;20121;-59
2021/06/23 15:28:22;;;;;;;4.68;3.10;;;;;;;18.18;64.66;102065.22;10539215;28;20051;-60
2021/06/23 15:33:24;;;;;;;8.40;3.20;;;;;;;18.41;63.52;102070.72;10539548;28;20097;-60
2021/06/23 15:38:37;;;;;;;8.95;4.18;;;;;;;17.97;61.90;102057.81;10539458;28;20052;-60
2021/06/23 15:43:40;;;;;;;8.15;3.47;;;;;;;18.34;59.03;102059.69;10540102;28;20044;-59
2021/06/23 15:48:44;;;;;;;6.60;3.40;;;;;;;18.52;64.05;102058.38;10538648;28;20063;-60
2021/06/23 15:53:47;;;;;;;7.15;3.72;;;;;;;18.12;63.73;102050.63;10539105;28;20048;-60
2021/06/23 15:58:49;;;;;;;7.28;3.60;;;;;;;18.27;60.35;102050.47;10538914;28;20048;-59
2021/06/23 16:03:51;;;;;;;6.20;4.38;;;;;;;18.10;63.07;102049.00;10538792;28;20484;-60
2021/06/23 16:08:54;;;;;;;6.68;3.85;;;;;;;18.01;62.98;102055.81;10540817;28;20051;-60
2021/06/23 16:13:56;;;;;;;8.88;4.03;;;;;;;18.23;65.06;102051.66;10546944;28;20048;-60
2021/06/23 16:19:01;;;;;;;6.72;3.80;;;;;;;17.87;64.49;102055.88;10546420;28;20063;-59
2021/06/23 16:24:18;;;;;;;9.93;4.30;;;;;;;17.79;63.49;102046.63;10546062;28;20044;-60
2021/06/23 16:29:20;;;;;;;8.85;4.25;;;;;;;18.36;63.33;102045.38;10545688;28;20050;-59
2021/06/23 16:34:23;;;;;;;6.05;3.90;;;;;;;18.28;64.56;102036.28;10545912;28;20484;-60
2021/06/23 16:39:25;;;;;;;7.70;4.72;;;;;;;18.08;60.97;102042.97;10545671;28;20051;-60
2021/06/23 16:44:28;;;;;;;7.35;3.97;;;;;;;18.19;64.58;102049.22;10546074;28;20046;-60
2021/06/23 16:49:30;;;;;;;6.40;3.75;;;;;;;18.37;64.23;102041.78;10545279;28;20044;-60
2021/06/23 16:54:32;;;;;;;7.80;3.30;;;;;;;18.22;65.91;102032.25;10545054;28;20434;-60
2021/06/23 16:59:35;;;;;;;9.27;3.58;;;;;;;18.27;65.56;102034.56;10544922;28;20048;-60
2021/06/23 17:04:37;;;;;;;7.55;3.92;;;;;;;18.11;65.84;102035.66;10544736;28;20446;-59
2021/06/23 17:09:40;;;;;;;8.27;3.90;;;;;;;17.89;62.83;102027.50;10544745;28;20040;-60
2021/06/23 17:14:42;;;;;;;11.82;4.03;;;;;;;18.01;62.87;102027.50;10544469;28;20058;-60
2021/06/23 17:19:44;;;;;;;17.85;4.65;;;;;;;17.97;65.01;102022.50;10543722;28;20130;-60
2021/06/23 17:24:47;;;;;;;8.82;4.38;;;;;;;18.02;63.93;102017.72;10542913;28;20048;-60
2021/06/23 17:29:50;;;;;;;5.13;3.55;;;;;;;18.00;67.15;102019.66;10544533;28;20047;-60
2021/06/23 17:34:52;;;;;;;7.72;4.20;;;;;;;17.93;66.34;102021.03;10542572;28;20114;-59
2021/06/23 17:39:54;;;;;;;9.65;5.22;;;;;;;17.74;62.70;102024.09;10542958;28;20044;-59
2021/06/23 17:44:57;;;;;;;8.85;4.15;;;;;;;17.79;67.15;102028.09;10542489;28;20051;-59
2021/06/23 17:49:59;;;;;;;11.60;5.00;;;;;;;17.69;65.13;102028.84;10542094;28;20059;-60
2021/06/23 17:55:02;;;;;;;12.98;4.70;;;;;;;17.37;65.87;102030.06;10541779;28;20407;-60
2021/06/23 18:00:06;;;;;;;10.02;4.38;;;;;;;17.25;66.76;102031.72;10542053;28;20046;-59
2021/06/23 18:05:09;;;;;;;10.70;4.90;;;;;;;17.21;63.66;102027.56;10540498;28;20044;-60
2021/06/23 18:10:12;;;;;;;8.40;4.68;;;;;;;17.14;66.04;102026.28;10541483;28;20055;-60
2021/06/23 18:15:15;;;;;;;14.35;5.60;;;;;;;17.05;67.01;102027.72;10541233;28;20052;-60
2021/06/23 18:20:17;;;;;;;5.45;4.57;;;;;;;17.28;66.64;102035.94;10541024;28;20426;-59
2021/06/23 18:25:20;;;;;;;10.32;4.53;;;;;;;16.94;67.88;102038.16;10540786;28;20051;-59
2021/06/23 18:30:23;;;;;;;9.43;4.78;;;;;;;17.17;67.01;102047.25;10541212;28;20376;-59
2021/06/23 18:35:27;;;;;;;7.00;4.05;;;;;;;17.02;67.13;102051.75;10540675;28;20048;-59
2021/06/23 18:40:29;;;;;;;8.63;3.88;;;;;;;16.97;70.07;102045.91;10538961;28;20047;-60
2021/06/23 18:45:32;;;;;;;8.63;5.18;;;;;;;17.14;66.46;102051.91;10540225;28;20048;-60
2021/06/23 18:50:34;;;;;;;6.80;3.83;;;;;;;16.84;68.88;102058.19;10540052;28;20059;-59
2021/06/23 18:55:37;;;;;;;7.50;4.68;;;;;;;16.64;68.79;102049.75;10539472;28;20380;-59
2021/06/23 19:00:39;;;;;;;6.90;3.95;;;;;;;16.75;67.32;102061.44;10539703;28;20044;-60
2021/06/23 19:05:42;;;;;;;10.07;3.92;;;;;;;16.76;69.08;102060.47;10537875;28;20545;-59
2021/06/23 19:10:45;;;;;;;12.35;3.92;;;;;;;16.56;69.75;102051.13;10539165;28;20040;-59
2021/06/23 19:15:47;;;;;;;6.18;3.83;;;;;;;16.52;69.63;102045.19;10537922;28;20062;-59
2021/06/23 19:20:50;;;;;;;7.70;3.90;;;;;;;16.47;70.44;102047.28;10538886;28;20395;-59
2021/06/23 19:25:52;;;;;;;7.35;4.22;;;;;;;16.48;68.79;102051.63;10538945;28;20048;-59
2021/06/23 19:30:54;;;;;;;10.20;4.07;;;;;;;16.46;69.93;102051.72;10538865;28;20050;-59
2021/06/23 19:35:57;;;;;;;7.35;4.10;;;;;;;16.17;70.61;102048.22;10539298;28;20084;-59
2021/06/23 19:41:00;;;;;;;5.20;3.85;;;;;;;16.44;70.74;102048.34;10539709;28;20063;-60
2021/06/23 19:46:02;;;;;;;7.45;4.45;;;;;;;16.07;71.08;102047.97;10544449;28;20130;-59
2021/06/23 19:51:05;;;;;;;10.95;4.47;;;;;;;16.13;69.39;102052.00;10547467;28;20056;-59
2021/06/23 19:56:07;;;;;;;7.30;3.92;;;;;;;15.96;71.07;102051.25;10546767;28;20052;-59
2021/06/23 20:01:10;;;;;;;8.93;4.47;;;;;;;16.14;71.55;102065.13;10546609;28;20122;-59
2021/06/23 20:06:12;;;;;;;8.40;4.13;;;;;;;16.01;70.64;102065.97;10546428;28;20102;-59
2021/06/23 20:11:16;;;;;;;10.50;4.13;;;;;;;16.14;70.26;102065.13;10546551;28;20058;-59
2021/06/23 20:16:19;;;;;;;9.70;4.70;;;;;;;15.94;71.34;102065.50;10544756;28;20123;-60
2021/06/23 20:21:21;;;;;;;5.68;3.85;;;;;;;16.07;69.79;102060.31;10545538;28;20479;-59
2021/06/23 20:26:24;;;;;;;12.80;4.75;;;;;;;15.93;71.07;102064.63;10545426;28;20055;-59
2021/06/23 20:31:26;;;;;;;7.43;3.80;;;;;;;15.94;71.57;102058.41;10545569;28;20048;-59
2021/06/23 20:36:29;;;;;;;9.43;3.97;;;;;;;15.84;72.06;102065.19;10545332;28;20044;-59
2021/06/23 20:41:32;;;;;;;8.75;3.83;;;;;;;15.70;72.34;102058.06;10545387;28;20044;-60
2021/06/23 20:46:35;;;;;;;9.85;3.72;;;;;;;15.74;72.01;102070.13;10544856;28;20480;-59
2021/06/23 20:51:37;;;;;;;10.60;3.78;;;;;;;15.68;70.39;102074.91;10544806;28;20055;-60
2021/06/23 20:56:39;;;;;;;8.88;3.58;;;;;;;15.94;71.38;102073.41;10543293;28;20492;-59
2021/06/23 21:01:42;;;;;;;10.88;4.07;;;;;;;15.73;70.89;102064.94;10544635;28;20044;-60
2021/06/23 21:06:50;;;;;;;6.35;3.75;;;;;;;15.61;72.79;102072.63;10544133;28;20079;-59
2021/06/23 21:11:52;;;;;;;11.40;3.95;;;;;;;15.62;70.78;102068.22;10543957;28;20400;-60
2021/06/23 21:16:55;;;;;;;6.53;3.88;;;;;;;15.71;69.93;102070.31;10542095;28;20396;-59
2021/06/23 21:21:58;;;;;;;8.20;5.00;;;;;;;15.79;71.65;102070.75;10542658;28;20479;-59
2021/06/23 21:27:13;;;;;;;9.98;4.30;;;;;;;15.55;73.25;102067.72;10543078;28;20044;-60
2021/06/23 21:32:17;;;;;;;9.45;4.10;;;;;;;15.50;71.19;102069.78;10543297;28;20079;-59
2021/06/23 21:37:38;;;;;;;8.98;4.97;;;;;;;15.51;72.29;102068.81;10543049;28;20052;-59
2021/06/23 21:43:12;;;;;;;13.98;5.35;;;;;;;15.55;74.38;102059.81;10542764;28;20520;-60
2021/06/23 21:48:17;;;;;;;7.38;5.13;;;;;;;15.65;72.15;102053.97;10542324;28;20055;-60
2021/06/23 21:53:20;;;;;;;11.55;4.60;;;;;;;15.39;74.00;102070.38;10524501;28;20040;-59
2021/06/23 21:58:23;;;;;;;14.50;4.40;;;;;;;15.39;71.65;102059.00;10542028;28;20075;-59
2021/06/23 22:03:28;;;;;;;8.77;3.50;;;;;;;15.45;70.99;102063.06;10542951;28;20047;-59
2021/06/23 22:08:41;;;;;;;8.73;5.70;;;;;;;15.29;74.36;102052.53;10540478;28;20044;-60
2021/06/23 22:13:43;;;;;;;11.63;4.90;;;;;;;15.17;72.61;102046.19;10542325;28;20395;-59
2021/06/23 22:18:46;;;;;;;5.60;3.75;;;;;;;15.31;73.42;102034.84;10541571;28;20056;-58
2021/06/23 22:23:49;;;;;;;8.18;3.50;;;;;;;15.29;71.02;102049.91;10540484;28;20051;-59
2021/06/23 22:28:54;;;;;;;9.45;3.55;;;;;;;15.23;71.61;102044.06;10540055;28;20040;-59
2021/06/23 22:33:56;;;;;;;10.85;4.03;;;;;;;15.02;73.55;102053.19;10541297;28;20419;-59
2021/06/23 22:38:59;;;;;;;11.40;4.40;;;;;;;14.96;73.95;102066.69;10541308;28;20055;-59
2021/06/23 22:44:05;;;;;;;8.65;3.95;;;;;;;15.10;72.06;102073.84;10539622;28;20048;-59
2021/06/23 22:49:21;;;;;;;9.23;4.38;;;;;;;14.98;72.52;102080.66;10540571;28;20052;-59
2021/06/23 22:54:32;;;;;;;10.27;4.65;;;;;;;15.20;73.53;102081.16;10540676;28;20055;-59
2021/06/23 22:59:34;;;;;;;11.68;4.68;;;;;;;15.08;73.08;102087.13;10540462;28;20051;-59
2021/06/23 23:04:42;;;;;;;10.02;4.75;;;;;;;15.00;74.89;102090.19;10540128;28;20059;-59
2021/06/23 23:09:44;;;;;;;8.40;4.00;;;;;;;15.04;73.96;102096.13;10539967;28;20055;-59
2021/06/23 23:14:47;;;;;;;7.93;4.28;;;;;;;14.92;74.21;102097.66;10540002;28;20044;-59
2021/06/23 23:19:50;;;;;;;8.50;4.88;;;;;;;15.21;75.27;102098.69;10538299;28;20044;-59